Time;durP1;ratioP1;P1;durP2;ratioP2;P2;SDS_P1;SDS_P2;PMS_P1;PMS_P2;Temp;Humidity;BMP_temperature;BMP_pressure;BME280_temperature;BME280_humidity;BME280_pressure;Samples;Min_cycle;Max_cycle;Signal;HPM_P1;HPM_P2
2023/09/18 00:02:06;;;;;;;6.28;2.70;;;;;;;18.60;69.69;99887.38;6084753;23;20001;-93
2023/09/18 00:04:32;;;;;;;6.28;2.47;;;;;;;18.61;69.30;99880.00;6086201;23;20001;-92
2023/09/18 00:06:57;;;;;;;4.95;2.70;;;;;;;18.54;69.37;99888.63;6109318;23;20006;-92
2023/09/18 00:09:23;;;;;;;4.93;2.85;;;;;;;18.55;69.73;99887.50;6110899;23;19997;-92
2023/09/18 00:11:49;;;;;;;5.03;2.65;;;;;;;18.51;69.55;99876.41;6085947;23;20182;-92
2023/09/18 00:14:14;;;;;;;5.75;2.90;;;;;;;18.45;70.22;99871.38;6109573;23;20005;-92
2023/09/18 00:16:40;;;;;;;9.80;3.80;;;;;;;18.43;70.71;99879.88;6088008;23;19981;-93
2023/09/18 00:19:07;;;;;;;6.78;3.38;;;;;;;18.38;70.83;99875.31;6109632;23;20001;-92
2023/09/18 00:21:33;;;;;;;6.95;3.47;;;;;;;18.37;71.20;99872.94;6110219;23;19997;-92
2023/09/18 00:23:59;;;;;;;8.18;3.22;;;;;;;18.29;71.51;99866.28;6085849;23;20009;-92
2023/09/18 00:26:25;;;;;;;8.23;3.30;;;;;;;18.27;71.92;99879.41;6132346;23;20326;-92
2023/09/18 00:28:50;;;;;;;6.22;3.28;;;;;;;18.23;72.44;99872.97;6109081;23;20060;-92
2023/09/18 00:31:16;;;;;;;5.93;3.00;;;;;;;18.28;72.10;99885.66;6087787;23;20013;-93
2023/09/18 00:33:41;;;;;;;6.85;3.38;;;;;;;18.14;72.28;99872.09;6132506;23;19998;-92
2023/09/18 00:36:07;;;;;;;6.10;3.63;;;;;;;18.14;72.39;99874.81;6108693;23;20021;-92
2023/09/18 00:38:33;;;;;;;12.10;3.40;;;;;;;18.03;72.75;99868.75;6108829;23;20002;-92
2023/09/18 00:40:58;;;;;;;5.03;3.03;;;;;;;18.06;72.72;99864.63;6109197;23;20013;-93
2023/09/18 00:43:24;;;;;;;5.72;3.55;;;;;;;18.12;72.81;99874.31;6134734;23;19997;-92
2023/09/18 00:45:49;;;;;;;4.88;3.20;;;;;;;18.01;72.89;99860.06;6133503;23;20029;-93
2023/09/18 00:48:15;;;;;;;6.55;3.50;;;;;;;18.04;73.19;99864.13;6133691;23;20009;-92
2023/09/18 00:50:41;;;;;;;4.28;2.90;;;;;;;18.00;72.91;99861.22;6132322;23;19997;-93
2023/09/18 00:53:07;;;;;;;7.22;3.50;;;;;;;17.99;73.04;99865.03;6132939;23;20008;-93
2023/09/18 00:55:33;;;;;;;7.28;3.60;;;;;;;17.89;72.94;99841.56;6110325;23;20008;-92
2023/09/18 00:57:58;;;;;;;5.10;3.10;;;;;;;17.91;73.44;99860.31;6108262;23;20002;-93
2023/09/18 01:00:24;;;;;;;5.60;2.97;;;;;;;17.81;73.59;99853.13;6108502;23;20001;-93
2023/09/18 01:02:49;;;;;;;8.20;3.10;;;;;;;17.79;73.58;99860.81;6110209;23;20077;-93
2023/09/18 01:05:19;;;;;;;7.60;3.03;;;;;;;17.78;73.44;99861.91;6109807;23;19998;-93
2023/09/18 01:07:46;;;;;;;6.38;3.05;;;;;;;17.74;73.60;99864.44;6133386;23;20005;-93
2023/09/18 01:10:15;;;;;;;6.90;3.03;;;;;;;17.73;73.79;99864.75;6134096;23;19997;-92
2023/09/18 01:12:44;;;;;;;4.47;3.15;;;;;;;17.70;73.60;99866.16;6109997;23;20009;-92
2023/09/18 01:15:17;;;;;;;6.40;3.58;;;;;;;17.61;73.86;99853.56;6135381;23;20401;-92
2023/09/18 01:17:42;;;;;;;6.90;3.35;;;;;;;17.70;73.98;99863.44;6110222;23;19998;-92
2023/09/18 01:20:11;;;;;;;5.15;3.30;;;;;;;17.64;73.95;99853.75;6109202;23;19997;-93
2023/09/18 01:22:37;;;;;;;7.95;3.38;;;;;;;17.61;74.26;99848.91;6133956;23;20005;-93
2023/09/18 01:25:02;;;;;;;6.75;3.17;;;;;;;17.62;73.91;99853.25;6107990;23;20005;-92
2023/09/18 01:27:28;;;;;;;8.10;3.38;;;;;;;17.61;74.15;99854.34;6108579;23;20436;-93
2023/09/18 01:29:54;;;;;;;7.88;3.33;;;;;;;17.63;74.35;99856.78;6134280;23;20085;-93
2023/09/18 01:32:19;;;;;;;6.80;3.40;;;;;;;17.65;74.19;99862.72;6109349;23;20021;-92
2023/09/18 01:34:46;;;;;;;6.13;3.50;;;;;;;17.56;74.50;99844.38;6109246;23;20009;-92
2023/09/18 01:37:13;;;;;;;4.85;3.22;;;;;;;17.58;74.44;99855.78;6108642;23;20040;-92
2023/09/18 01:39:38;;;;;;;7.32;3.45;;;;;;;17.54;74.65;99843.88;6134684;23;20009;-93
2023/09/18 01:42:05;;;;;;;4.90;3.50;;;;;;;17.52;74.62;99846.09;6135007;23;19998;-92
2023/09/18 01:44:31;;;;;;;6.18;3.38;;;;;;;17.53;74.74;99868.69;6110262;23;19998;-92
2023/09/18 01:46:58;;;;;;;5.70;3.22;;;;;;;17.46;74.63;99860.13;6110749;23;20009;-93
2023/09/18 01:49:37;;;;;;;7.70;3.17;;;;;;;17.47;74.53;99862.53;6111928;23;20029;-93
2023/09/18 01:52:03;;;;;;;6.80;3.45;;;;;;;17.37;74.80;99849.94;6109964;23;19989;-93
2023/09/18 01:54:29;;;;;;;4.47;3.30;;;;;;;17.31;74.94;99859.31;6110551;23;20004;-93
2023/09/18 01:56:55;;;;;;;6.00;3.40;;;;;;;17.32;74.59;99857.38;6135217;23;19989;-93
2023/09/18 01:59:20;;;;;;;4.55;3.22;;;;;;;17.32;74.93;99865.53;6134784;23;20001;-92
2023/09/18 02:01:46;;;;;;;6.60;2.90;;;;;;;17.32;75.04;99865.53;6110247;23;20032;-92
2023/09/18 02:04:11;;;;;;;6.78;4.03;;;;;;;17.25;74.92;99867.88;6109353;23;20006;-92
2023/09/18 02:06:37;;;;;;;6.38;3.33;;;;;;;17.24;74.84;99877.94;6134033;23;20005;-93
2023/09/18 02:09:08;;;;;;;5.50;3.35;;;;;;;17.21;75.08;99873.09;6109966;23;19998;-92
2023/09/18 02:11:35;;;;;;;6.35;3.30;;;;;;;17.24;75.37;99877.13;6111748;23;19997;-93
2023/09/18 02:14:01;;;;;;;4.53;3.35;;;;;;;17.17;75.46;99877.53;6135692;23;20009;-93
2023/09/18 02:16:29;;;;;;;4.50;3.20;;;;;;;17.09;75.09;99867.34;6111724;23;19997;-93
2023/09/18 02:18:55;;;;;;;5.18;3.42;;;;;;;17.09;74.89;99867.34;6134010;23;20008;-92
2023/09/18 02:21:21;;;;;;;5.78;3.58;;;;;;;17.06;75.00;99862.50;6110492;23;20363;-93
2023/09/18 02:23:53;;;;;;;7.80;3.80;;;;;;;17.18;74.95;99873.69;6109779;23;20001;-93
2023/09/18 02:26:19;;;;;;;5.70;3.58;;;;;;;17.00;75.35;99855.53;6111147;23;20076;-93
2023/09/18 02:28:44;;;;;;;5.72;3.20;;;;;;;17.02;75.42;99864.22;6111294;23;20059;-93
2023/09/18 02:31:10;;;;;;;5.50;3.20;;;;;;;16.93;75.04;99854.00;6107323;23;20017;-93
2023/09/18 02:33:37;;;;;;;5.88;3.42;;;;;;;16.98;75.17;99865.91;6135116;23;20017;-93
2023/09/18 02:36:02;;;;;;;5.85;3.42;;;;;;;16.93;75.44;99869.50;6086173;23;20006;-92
2023/09/18 02:38:28;;;;;;;6.07;4.05;;;;;;;16.98;75.66;99877.59;6085336;23;20000;-92
2023/09/18 02:40:54;;;;;;;8.93;3.30;;;;;;;16.86;75.44;99871.81;6086694;23;20085;-92
2023/09/18 02:43:21;;;;;;;6.50;3.50;;;;;;;16.90;75.46;99884.50;6086251;23;20079;-92
2023/09/18 02:45:47;;;;;;;6.18;3.28;;;;;;;16.74;75.34;99870.31;6111044;23;20041;-92
2023/09/18 02:48:12;;;;;;;6.72;3.75;;;;;;;16.75;75.53;99885.56;6110385;23;20001;-93
2023/09/18 02:50:38;;;;;;;6.50;3.47;;;;;;;16.66;75.79;99873.72;6109643;23;20031;-92
2023/09/18 02:53:06;;;;;;;6.30;3.40;;;;;;;16.63;75.80;99885.19;6110440;23;20006;-92
2023/09/18 02:55:31;;;;;;;10.07;4.18;;;;;;;16.71;75.55;99895.41;6086525;23;20035;-92
2023/09/18 02:57:57;;;;;;;4.43;3.22;;;;;;;16.63;76.01;99887.91;6085271;23;20377;-92
2023/09/18 03:00:22;;;;;;;7.53;3.65;;;;;;;16.63;75.92;99900.72;6110974;23;20008;-93
2023/09/18 03:02:47;;;;;;;5.15;3.03;;;;;;;16.61;76.22;99906.44;6110398;23;20091;-92
2023/09/18 03:05:13;;;;;;;5.68;3.55;;;;;;;16.53;76.34;99891.59;6086996;23;20009;-92
2023/09/18 03:07:38;;;;;;;5.32;3.83;;;;;;;16.55;76.47;99897.53;6108898;23;20009;-92
2023/09/18 03:10:05;;;;;;;5.90;3.60;;;;;;;16.53;76.82;99897.03;6109832;23;19997;-93
2023/09/18 03:12:31;;;;;;;5.85;3.88;;;;;;;16.52;76.94;99900.06;6110190;23;20002;-92
2023/09/18 03:14:57;;;;;;;8.13;4.03;;;;;;;16.56;76.75;99898.38;6086844;23;20005;-91
2023/09/18 03:17:22;;;;;;;10.98;3.85;;;;;;;16.47;76.98;99894.69;6109502;23;20389;-91
2023/09/18 03:19:49;;;;;;;6.72;3.22;;;;;;;16.55;76.96;99902.97;6110752;23;20006;-93
2023/09/18 03:22:14;;;;;;;5.88;3.40;;;;;;;16.60;76.78;99909.44;6086307;23;19997;-92
2023/09/18 03:24:39;;;;;;;8.13;3.80;;;;;;;16.53;76.57;99904.38;6111050;23;20032;-93
2023/09/18 03:27:05;;;;;;;9.25;3.63;;;;;;;16.60;76.99;99909.44;6085256;23;20009;-92
2023/09/18 03:29:30;;;;;;;5.55;3.50;;;;;;;16.56;76.63;99911.97;6085500;23;20008;-92
2023/09/18 03:31:58;;;;;;;7.38;3.67;;;;;;;16.54;76.48;99909.53;6122043;23;20072;-92
2023/09/18 03:34:26;;;;;;;5.30;3.63;;;;;;;16.35;77.17;99904.09;6109157;23;20001;-92
2023/09/18 03:36:52;;;;;;;6.68;3.92;;;;;;;16.38;76.67;99904.63;6110832;23;20008;-92
2023/09/18 03:39:18;;;;;;;7.00;3.80;;;;;;;16.42;76.78;99919.25;6109733;23;20009;-92
2023/09/18 03:41:43;;;;;;;5.07;3.47;;;;;;;16.43;76.31;99909.97;6133823;23;19998;-92
2023/09/18 03:44:10;;;;;;;10.27;4.18;;;;;;;16.42;76.40;99911.09;6109489;23;20060;-92
2023/09/18 03:46:35;;;;;;;9.48;4.30;;;;;;;16.36;76.69;99922.00;6109776;23;20014;-92
2023/09/18 03:49:02;;;;;;;6.55;3.90;;;;;;;16.23;77.18;99922.75;6109320;23;20033;-93
2023/09/18 03:51:31;;;;;;;5.72;4.00;;;;;;;16.20;76.96;99917.91;6110984;23;20549;-93
2023/09/18 03:53:56;;;;;;;6.88;3.83;;;;;;;16.27;76.94;99926.50;6109785;23;20020;-92
2023/09/18 03:56:22;;;;;;;7.00;4.28;;;;;;;16.32;77.11;99925.63;6134060;23;20001;-92
2023/09/18 03:58:49;;;;;;;10.68;4.50;;;;;;;16.32;77.06;99925.63;6132472;23;19998;-92
2023/09/18 04:01:24;;;;;;;7.05;3.78;;;;;;;16.33;76.85;99928.06;6108564;23;20372;-92
2023/09/18 04:03:49;;;;;;;6.28;3.88;;;;;;;16.34;76.36;99923.41;6108810;23;20425;-93
2023/09/18 04:06:15;;;;;;;7.88;4.50;;;;;;;16.30;76.61;99919.66;6109129;23;20064;-92
2023/09/18 04:08:40;;;;;;;8.10;4.40;;;;;;;16.32;76.94;99936.50;6158855;23;20001;-92
2023/09/18 04:11:09;;;;;;;7.38;4.40;;;;;;;16.23;76.93;99930.91;6109874;23;19997;-93
2023/09/18 04:13:35;;;;;;;6.82;4.25;;;;;;;16.14;76.85;99922.59;6135047;23;20001;-91
2023/09/18 04:16:00;;;;;;;12.48;9.27;;;;;;;16.21;76.59;99924.13;6133055;23;20001;-91
2023/09/18 04:18:26;;;;;;;10.18;5.00;;;;;;;16.26;76.52;99933.03;6133379;23;20017;-92
2023/09/18 04:20:52;;;;;;;7.95;5.10;;;;;;;16.22;76.44;99920.31;6132967;23;20421;-93
2023/09/18 04:23:28;;;;;;;7.50;4.45;;;;;;;16.30;76.25;99936.78;6134464;23;19997;-93
2023/09/18 04:25:54;;;;;;;8.32;5.00;;;;;;;16.25;76.47;99934.16;6115665;23;20045;-93
2023/09/18 04:28:20;;;;;;;12.32;5.10;;;;;;;16.21;76.90;99924.97;6111713;23;20408;-93
2023/09/18 04:30:46;;;;;;;13.05;5.22;;;;;;;16.19;76.62;99924.44;6110857;23;20037;-92
2023/09/18 04:33:12;;;;;;;11.32;5.03;;;;;;;16.19;77.07;99919.00;6110880;23;20009;-92
2023/09/18 04:35:39;;;;;;;15.25;5.88;;;;;;;16.19;76.84;99932.59;6086580;23;20424;-92
2023/09/18 04:38:08;;;;;;;10.52;4.72;;;;;;;16.31;76.61;99946.56;6085861;23;20012;-91
2023/09/18 04:40:37;;;;;;;12.75;5.35;;;;;;;16.24;76.76;99932.50;6085778;23;20068;-93
2023/09/18 04:43:06;;;;;;;10.52;5.63;;;;;;;16.30;76.83;99933.25;6113554;23;20073;-92
2023/09/18 04:45:31;;;;;;;11.95;5.80;;;;;;;16.33;76.96;99938.94;6114458;23;20002;-94
2023/09/18 04:48:00;;;;;;;8.80;5.22;;;;;;;16.38;76.18;99926.38;6111834;23;19993;-92
2023/09/18 04:50:28;;;;;;;8.63;5.85;;;;;;;16.46;75.97;99923.00;6089389;23;20008;-93
2023/09/18 04:52:55;;;;;;;8.45;5.25;;;;;;;16.48;75.91;99937.09;6111550;23;20005;-96
2023/09/18 04:55:24;;;;;;;12.68;6.60;;;;;;;16.27;76.76;99921.06;6088144;23;20016;-94
2023/09/18 04:57:49;;;;;;;14.00;6.07;;;;;;;16.29;77.20;99927.03;6088944;23;20061;-93
2023/09/18 05:07:32;;;;;;;12.60;4.85;;;;;;;16.26;76.20;99933.03;6153325;22;20027;-94
2023/09/18 05:09:58;;;;;;;16.27;6.25;;;;;;;16.20;76.69;99930.69;6137363;23;20016;-96
2023/09/18 05:12:30;;;;;;;10.90;7.47;;;;;;;16.28;77.08;99946.34;6090896;23;20005;-96
2023/09/18 05:14:58;;;;;;;;;;;;;;;16.38;77.10;99957.06;6090157;23;20024;-92
2023/09/18 05:17:41;;;;;;;10.73;7.13;;;;;;;16.31;77.37;99945.72;6116063;23;19908;-94
2023/09/18 05:20:09;;;;;;;10.32;6.82;;;;;;;16.13;77.65;99931.84;6094274;23;20006;-95
2023/09/18 05:22:35;;;;;;;17.17;9.48;;;;;;;16.31;77.87;99957.44;6093413;23;19996;-92
2023/09/18 05:25:01;;;;;;;10.90;7.90;;;;;;;16.06;78.06;99919.72;6096740;23;20005;-94
2023/09/18 05:33:08;;;;;;;8.90;6.57;;;;;;;16.45;77.38;99943.09;6196824;22;20025;-91
2023/09/18 05:35:53;;;;;;;9.73;6.40;;;;;;;16.43;76.75;99926.28;6171342;23;20001;-91
2023/09/18 05:48:20;;;;;;;10.05;5.75;;;;;;;17.00;74.41;99954.28;6136961;23;20010;-94
2023/09/18 05:50:47;;;;;;;7.90;5.10;;;;;;;17.05;74.03;99962.34;6085583;23;20069;-95
2023/09/18 05:53:18;;;;;;;13.93;5.32;;;;;;;17.21;73.12;99968.34;6117173;23;20008;-94
2023/09/18 05:59:30;;;;;;;13.85;7.82;;;;;;;17.48;72.29;99972.25;6171554;23;20027;-94
2023/09/18 06:01:59;;;;;;;11.48;7.25;;;;;;;17.40;72.30;99964.78;6162790;23;20064;-95
2023/09/18 06:04:25;;;;;;;8.27;3.78;;;;;;;17.44;71.86;99960.34;6144275;23;20015;-95
2023/09/18 06:07:32;;;;;;;54.33;39.20;;;;;;;17.56;71.41;99961.47;6141571;23;20012;-93
2023/09/18 06:10:01;;;;;;;13.07;6.53;;;;;;;17.58;71.34;99944.84;6191039;23;20001;-93
2023/09/18 06:12:54;;;;;;;11.07;5.20;;;;;;;17.80;70.76;99962.41;6154176;23;20024;-96
2023/09/18 06:15:18;;;;;;;5.95;3.63;;;;;;;17.87;70.14;99955.47;6177025;23;20008;-93
2023/09/18 06:17:44;;;;;;;5.78;3.80;;;;;;;17.95;69.62;99957.50;6148420;23;19999;-95
2023/09/18 06:20:12;;;;;;;8.35;3.38;;;;;;;18.20;69.25;99981.78;6141837;23;20063;-92
2023/09/18 06:22:46;;;;;;;10.38;7.80;;;;;;;18.32;69.09;99973.91;6142026;23;20001;-94
2023/09/18 06:25:24;;;;;;;7.75;4.13;;;;;;;18.31;68.12;99951.28;6147713;23;20001;-91
2023/09/18 06:27:54;;;;;;;16.08;8.63;;;;;;;18.64;67.50;99975.66;6171325;23;20002;-94
2023/09/18 06:30:34;;;;;;;7.90;4.63;;;;;;;18.83;67.35;99982.91;6148890;23;20091;-94
2023/09/18 06:37:30;;;;;;;4.85;2.90;;;;;;;18.84;65.97;99959.94;6075860;23;20112;-96
2023/09/18 06:47:36;;;;;;;4.03;2.30;;;;;;;19.38;63.86;99990.84;5912319;24;20025;-93
2023/09/18 06:50:48;;;;;;;4.80;2.42;;;;;;;19.32;62.93;99972.97;5881094;24;20005;-92
2023/09/18 06:53:16;;;;;;;7.00;2.95;;;;;;;19.51;62.87;99980.97;5877615;24;20339;-94
2023/09/18 06:55:44;;;;;;;12.80;4.28;;;;;;;19.47;63.27;99952.66;5833638;24;20037;-91
2023/09/18 06:58:25;;;;;;;7.30;3.13;;;;;;;19.70;62.78;99958.88;5885760;24;20092;-92
2023/09/18 07:00:59;;;;;;;9.52;3.58;;;;;;;19.86;62.35;99975.66;5960512;23;20008;-93
2023/09/18 07:04:11;;;;;;;8.27;4.30;;;;;;;19.92;61.91;99971.69;6038055;23;20002;-92
2023/09/18 07:06:38;;;;;;;6.40;3.25;;;;;;;20.11;60.09;99971.44;6081551;23;20005;-94
2023/09/18 07:13:11;;;;;;;6.18;2.85;;;;;;;20.28;58.09;99957.00;6025861;23;20027;-94
2023/09/18 07:16:14;;;;;;;6.45;4.32;;;;;;;20.44;57.38;99969.09;5978407;23;20018;-93
2023/09/18 07:22:15;;;;;;;5.38;2.88;;;;;;;20.68;55.24;99949.47;5997269;23;20008;-93
2023/09/18 07:24:45;;;;;;;3.97;2.40;;;;;;;20.76;55.31;99954.16;6122994;23;20006;-92
2023/09/18 07:27:30;;;;;;;4.20;2.38;;;;;;;20.97;53.61;99965.25;6139394;23;20035;-94
2023/09/18 07:29:57;;;;;;;5.38;2.33;;;;;;;20.98;53.68;99955.13;6148688;23;20001;-95
2023/09/18 07:32:51;;;;;;;4.53;2.28;;;;;;;21.07;51.75;99955.91;6147362;23;20414;-94
2023/09/18 07:35:26;;;;;;;6.85;2.38;;;;;;;21.27;51.65;99961.81;6144696;23;20525;-94
2023/09/18 07:41:03;;;;;;;;;;;;;;;;;;;;;
2023/09/18 07:43:57;;;;;;;3.88;2.65;;;;;;;21.29;49.84;99938.47;6142609;23;20490;-96
2023/09/18 07:46:45;;;;;;;5.88;3.65;;;;;;;21.47;49.59;99960.34;6136167;23;20064;-95
2023/09/18 07:49:41;;;;;;;7.28;2.70;;;;;;;21.68;50.53;99969.47;6116656;23;20037;-95
2023/09/18 07:52:13;;;;;;;7.25;3.10;;;;;;;21.69;48.55;99956.59;6075168;23;20002;-95
2023/09/18 07:54:43;;;;;;;7.22;3.00;;;;;;;21.95;48.99;99987.41;6116650;23;19998;-95
2023/09/18 07:57:12;;;;;;;4.07;2.10;;;;;;;21.73;48.60;99965.75;6114100;23;20090;-94
2023/09/18 07:59:38;;;;;;;4.72;2.20;;;;;;;21.76;46.12;99967.81;6091727;23;20006;-94
2023/09/18 08:02:28;;;;;;;7.68;2.42;;;;;;;21.77;47.49;99959.28;6119142;23;19998;-92
2023/09/18 08:06:05;;;;;;;;;;;;;;;;;;;;;
2023/09/18 08:08:37;;;;;;;5.82;1.95;;;;;;;22.06;45.91;99968.66;6004401;23;20031;-93
2023/09/18 08:11:11;;;;;;;4.68;2.65;;;;;;;22.15;46.33;99965.88;5998840;23;19991;-93
2023/09/18 08:13:56;;;;;;;19.85;9.00;;;;;;;22.22;46.06;99966.13;6123472;23;20309;-94
2023/09/18 08:20:20;;;;;;;4.13;3.03;;;;;;;22.23;45.94;99966.97;6031084;23;20015;-93
2023/09/18 08:23:38;;;;;;;3.38;2.47;;;;;;;22.47;45.40;99980.84;5944249;23;20012;-93
2023/09/18 08:26:22;;;;;;;5.43;3.13;;;;;;;22.40;45.65;99959.44;6039211;23;20026;-94
2023/09/18 08:29:27;;;;;;;;;;;;;;;;;;;;;
2023/09/18 08:32:30;;;;;;;5.32;2.55;;;;;;;22.38;44.42;99939.75;5945056;24;20032;-92
2023/09/18 08:34:58;;;;;;;5.68;3.78;;;;;;;22.53;45.43;99952.06;6018887;23;20102;-93
2023/09/18 08:38:03;;;;;;;5.03;2.95;;;;;;;22.55;44.94;99936.06;6042421;23;20101;-93
2023/09/18 08:40:30;;;;;;;4.40;3.45;;;;;;;22.85;45.31;99968.13;6080237;23;20014;-92
2023/09/18 08:42:56;;;;;;;6.82;2.70;;;;;;;22.78;44.29;99961.22;6079224;23;20074;-94
2023/09/18 08:45:33;;;;;;;6.68;3.00;;;;;;;22.88;44.88;99951.00;6053885;23;20002;-93
2023/09/18 08:47:59;;;;;;;23.30;16.33;;;;;;;22.75;44.52;99928.19;6103203;23;20010;-92
2023/09/18 08:50:29;;;;;;;15.88;10.57;;;;;;;22.81;44.47;99921.34;6054511;23;20021;-92
2023/09/18 08:53:03;;;;;;;9.02;5.15;;;;;;;22.87;45.72;99930.97;6058074;23;20002;-92
2023/09/18 08:56:07;;;;;;;6.97;4.97;;;;;;;22.93;45.98;99915.06;6063016;23;20455;-94
2023/09/18 08:58:39;;;;;;;4.65;2.97;;;;;;;22.95;45.05;99924.59;6098283;23;20012;-92
2023/09/18 09:01:27;;;;;;;;;;;;;;;;;;;;;
2023/09/18 09:04:00;;;;;;;6.55;3.92;;;;;;;22.86;43.80;99912.09;6174706;23;20017;-92
2023/09/18 09:06:31;;;;;;;7.82;3.55;;;;;;;23.03;43.60;99933.09;6143696;23;20012;-92
2023/09/18 09:09:01;;;;;;;8.20;5.85;;;;;;;23.16;42.42;99932.81;6121791;23;20004;-91
2023/09/18 09:11:52;;;;;;;10.43;5.97;;;;;;;23.30;43.51;99921.50;6171329;23;20016;-93
2023/09/18 09:14:35;;;;;;;4.90;3.45;;;;;;;23.26;42.71;99925.28;6152579;23;20087;-94
2023/09/18 09:17:03;;;;;;;7.05;3.03;;;;;;;23.38;43.56;99933.53;6141351;23;20004;-91
2023/09/18 09:19:42;;;;;;;9.02;3.10;;;;;;;23.49;42.88;99928.41;6145350;23;20091;-93
2023/09/18 09:22:10;;;;;;;7.53;2.97;;;;;;;23.39;41.93;99896.69;6146541;23;20356;-92
2023/09/18 09:24:43;;;;;;;6.68;3.70;;;;;;;23.67;42.42;99926.25;6143873;23;20332;-93
2023/09/18 09:27:22;;;;;;;4.97;3.65;;;;;;;23.78;42.38;99921.91;6144615;23;20013;-93
2023/09/18 09:33:30;;;;;;;3.38;2.50;;;;;;;23.70;41.31;99893.38;6192770;23;20031;-95
2023/09/18 09:36:12;;;;;;;7.78;2.75;;;;;;;23.64;41.15;99894.75;6147135;23;20001;-94
2023/09/18 09:39:30;;;;;;;4.63;2.80;;;;;;;23.51;41.96;99879.38;6148543;23;20003;-93
2023/09/18 09:42:36;;;;;;;4.82;2.97;;;;;;;23.78;42.30;99910.91;6196149;23;20328;-93
2023/09/18 09:45:35;;;;;;;5.65;3.38;;;;;;;23.87;41.71;99906.13;6112175;23;20001;-91
2023/09/18 09:48:14;;;;;;;6.93;3.72;;;;;;;23.89;41.48;99889.28;6139261;23;20023;-94
2023/09/18 09:54:35;;;;;;;9.60;4.68;;;;;;;23.86;40.72;99885.25;6122779;23;20016;-94
2023/09/18 09:57:22;;;;;;;5.35;3.50;;;;;;;24.01;39.96;99878.25;6126191;23;20002;-96
2023/09/18 10:02:57;;;;;;;5.53;3.13;;;;;;;24.21;39.30;99874.53;6147281;23;20016;-94
2023/09/18 10:05:45;;;;;;;5.75;3.53;;;;;;;24.24;39.29;99878.56;6083203;23;20054;-95
2023/09/18 10:08:26;;;;;;;5.90;3.10;;;;;;;24.32;38.40;99894.13;6040773;23;20037;-95
2023/09/18 10:11:39;;;;;;;5.50;3.67;;;;;;;24.43;38.01;99888.13;6055534;23;20014;-93
2023/09/18 10:14:10;;;;;;;6.15;3.33;;;;;;;24.39;37.71;99869.53;6082597;23;20005;-96
2023/09/18 10:16:37;;;;;;;;;;;;;;;24.53;37.06;99893.16;6093093;23;20368;-93
2023/09/18 10:19:53;;;;;;;4.40;2.95;;;;;;;24.60;36.39;99876.84;6142111;23;19939;-96
2023/09/18 10:22:47;;;;;;;11.07;4.07;;;;;;;24.61;37.89;99878.44;6150709;23;20041;-93
2023/09/18 10:25:44;;;;;;;7.18;3.60;;;;;;;24.51;37.94;99851.41;6062292;23;20129;-96
2023/09/18 10:32:07;;;;;;;7.50;3.50;;;;;;;24.62;37.38;99841.50;5963099;24;20028;-94
2023/09/18 10:39:19;;;;;;;;;;;;;;;;;;;;;
2023/09/18 10:42:11;;;;;;;7.28;3.92;;;;;;;24.71;36.56;99846.84;5874289;24;20044;-95
2023/09/18 10:44:59;;;;;;;7.10;5.00;;;;;;;24.96;37.13;99861.28;5785855;24;19996;-96
2023/09/18 10:47:53;;;;;;;5.88;3.45;;;;;;;24.93;35.71;99839.97;5765353;24;20028;-95
2023/09/18 10:50:45;;;;;;;7.35;3.30;;;;;;;24.92;35.18;99852.13;5928526;23;20009;-96
2023/09/18 10:56:42;;;;;;;5.30;2.80;;;;;;;24.87;34.20;99852.38;6039551;23;20022;-96
2023/09/18 11:11:52;;;;;;;7.00;3.67;;;;;;;24.89;34.77;99850.88;6220851;22;20015;-95
2023/09/18 11:14:26;;;;;;;3.88;2.72;;;;;;;24.91;34.69;99851.31;6053079;23;20065;-91
2023/09/18 11:17:03;;;;;;;6.25;2.70;;;;;;;24.75;34.15;99826.50;6022987;23;20031;-92
2023/09/18 11:19:36;;;;;;;5.00;3.50;;;;;;;24.74;34.22;99830.44;6083516;23;20017;-93
2023/09/18 11:22:18;;;;;;;5.05;3.10;;;;;;;24.76;33.87;99825.38;6061482;23;20002;-93
2023/09/18 11:25:04;;;;;;;;;;;;;;;24.93;34.77;99845.47;6061241;23;20460;-92
2023/09/18 11:28:19;;;;;;;4.22;3.00;;;;;;;24.89;34.31;99847.34;6106090;23;20365;-93
2023/09/18 11:30:58;;;;;;;3.15;2.40;;;;;;;24.81;32.52;99829.81;6084534;23;20088;-92
2023/09/18 11:33:46;;;;;;;3.70;2.72;;;;;;;24.65;33.30;99816.00;6061651;23;20002;-95
2023/09/18 11:36:34;;;;;;;4.05;2.78;;;;;;;24.80;32.89;99819.97;6059276;23;20473;-96
2023/09/18 11:39:37;;;;;;;4.28;2.92;;;;;;;24.77;32.90;99807.66;6034856;23;20006;-95
2023/09/18 11:42:22;;;;;;;;;;;;;;;;;;;;;
2023/09/18 11:45:03;;;;;;;3.55;2.80;;;;;;;24.92;32.88;99819.06;6070473;23;20026;-92
2023/09/18 11:51:14;;;;;;;4.18;2.15;;;;;;;25.07;32.49;99823.81;6049257;23;20003;-94
2023/09/18 11:54:00;;;;;;;11.25;2.63;;;;;;;25.07;32.25;99817.47;6029604;23;20013;-96
2023/09/18 12:00:32;;;;;;;;;;;;;;;;;;;;;
2023/09/18 12:07:00;;;;;;;5.03;2.53;;;;;;;24.87;33.55;99781.56;5884377;24;20623;-93
2023/09/18 12:27:06;;;;;;;5.25;3.30;;;;;;;24.98;33.17;99779.06;5906370;24;20016;-94
2023/09/18 12:29:45;;;;;;;4.07;2.35;;;;;;;25.02;33.07;99766.19;5928052;24;20021;-92
2023/09/18 12:32:49;;;;;;;4.32;2.60;;;;;;;25.15;33.30;99788.94;5882732;24;20002;-94
2023/09/18 12:42:24;;;;;;;15.25;12.07;;;;;;;24.96;32.53;99764.84;6017388;23;20018;-94
2023/09/18 12:45:25;;;;;;;8.52;6.28;;;;;;;24.93;32.53;99757.31;5951980;23;20462;-94
2023/09/18 12:48:46;;;;;;;;;;;;;;;;;;;;;
2023/09/18 12:51:31;;;;;;;3.65;2.30;;;;;;;25.05;33.56;99759.16;6033502;23;20067;-91
2023/09/18 12:55:04;;;;;;;;;;;;;;;;;;;;;
2023/09/18 12:58:24;;;;;;;3.45;2.30;;;;;;;25.01;32.57;99748.06;6114383;23;20021;-93
2023/09/18 13:01:13;;;;;;;3.33;2.42;;;;;;;25.20;32.71;99766.63;5983029;23;20355;-93
2023/09/18 13:03:48;;;;;;;3.00;2.35;;;;;;;25.01;32.62;99745.31;6041041;23;20013;-93
2023/09/18 13:06:44;;;;;;;3.38;2.13;;;;;;;25.11;32.34;99754.97;6034584;23;20030;-94
2023/09/18 13:17:43;;;;;;;6.50;4.47;;;;;;;25.28;32.92;99748.34;6018975;23;20467;-94
2023/09/18 13:31:03;;;;;;;;;;;;;;;;;;;;;
2023/09/18 13:34:08;;;;;;;;;;;;;;;;;;;;;
2023/09/18 13:40:25;;;;;;;4.00;2.97;;;;;;;25.34;32.83;99709.09;5936305;24;20016;-93
2023/09/18 13:43:00;;;;;;;2.78;2.17;;;;;;;25.21;32.74;99696.59;5991995;23;20358;-94
2023/09/18 13:45:28;;;;;;;3.10;2.22;;;;;;;25.44;32.99;99729.78;6013298;23;20002;-94
2023/09/18 13:47:54;;;;;;;3.53;2.83;;;;;;;25.37;32.36;99696.56;6030961;23;20034;-93
2023/09/18 13:50:22;;;;;;;4.95;2.42;;;;;;;25.48;32.15;99705.06;6025964;23;20006;-94
2023/09/18 13:53:09;;;;;;;5.13;3.00;;;;;;;25.67;32.97;99712.53;6092144;23;20010;-94
2023/09/18 13:55:35;;;;;;;4.45;2.85;;;;;;;25.59;33.32;99698.63;6096666;23;20006;-93
2023/09/18 13:58:06;;;;;;;3.25;2.70;;;;;;;25.69;33.26;99718.50;6062945;23;20620;-93
2023/09/18 14:00:44;;;;;;;5.10;3.03;;;;;;;25.61;34.37;99709.28;6093417;23;20002;-91
2023/09/18 14:06:42;;;;;;;4.65;2.70;;;;;;;25.66;32.85;99727.50;6100254;23;20011;-91
2023/09/18 14:09:12;;;;;;;8.68;4.85;;;;;;;25.55;33.59;99699.72;6114345;23;20046;-94
2023/09/18 14:15:18;;;;;;;5.35;3.20;;;;;;;25.83;33.28;99698.69;6161224;23;20023;-90
2023/09/18 14:17:44;;;;;;;8.55;4.88;;;;;;;25.95;33.04;99718.69;6190410;23;19997;-93
2023/09/18 14:20:19;;;;;;;5.10;3.10;;;;;;;26.00;33.21;99695.50;6169961;23;20044;-95
2023/09/18 14:22:48;;;;;;;8.20;3.70;;;;;;;26.00;33.24;99693.56;6168139;23;20008;-94
2023/09/18 14:25:25;;;;;;;5.95;2.58;;;;;;;26.04;32.51;99685.34;6145938;23;20001;-92
2023/09/18 14:27:51;;;;;;;6.22;3.35;;;;;;;26.17;32.76;99697.81;6141961;23;19980;-90
2023/09/18 14:30:19;;;;;;;5.05;3.15;;;;;;;26.27;32.67;99696.41;6140568;23;20008;-93
2023/09/18 14:33:04;;;;;;;5.45;2.80;;;;;;;26.39;33.00;99695.44;6142932;23;20015;-92
2023/09/18 14:35:30;;;;;;;8.05;3.10;;;;;;;26.44;32.86;99684.09;6142973;23;20080;-91
2023/09/18 14:37:56;;;;;;;3.75;2.85;;;;;;;26.59;32.64;99696.22;6140774;23;20001;-91
2023/09/18 14:40:25;;;;;;;5.68;2.97;;;;;;;26.68;32.73;99701.50;6190300;23;21007;-92
2023/09/18 14:42:51;;;;;;;5.15;2.45;;;;;;;26.59;32.14;99679.66;6140673;23;20011;-91
2023/09/18 14:45:17;;;;;;;4.55;2.95;;;;;;;26.47;32.15;99671.53;6138948;23;20012;-92
2023/09/18 14:47:46;;;;;;;4.40;2.70;;;;;;;26.45;32.67;99677.41;6140151;23;20008;-92
2023/09/18 14:50:11;;;;;;;8.40;3.13;;;;;;;26.40;31.97;99686.81;6141412;23;20016;-92
2023/09/18 14:52:37;;;;;;;3.83;2.70;;;;;;;26.35;32.80;99689.06;6190491;23;19997;-91
2023/09/18 14:55:11;;;;;;;4.95;2.80;;;;;;;26.11;32.33;99690.22;6139996;23;20024;-92